74IL weather

Corn Alley 2 Airport
El Paso, Illinois, United States

Public forecast

Using degrees Fahrenheit for public forecast. Weather courtesy of forecast.io.

Closest aviation weather report (METAR) to Corn Alley 2 Airport

Closest report is Central Illinois Regional Airport at Bloomington-Normal, 17.3 nm (32.1 km) SSE. Retrieved 2020/01/23 06:56 UTC (24 minutes ago):

KBMI 230656Z AUTO 18013KT 8SM -SN OVC008 M01/M02 A3007 RMK AO2 SLP191 P0000 T10111017

Closest aviation forecast (TAF) to Corn Alley 2 Airport

Closest forecast is Central Illinois Regional Airport at Bloomington-Normal, 17.3 nm (32.1 km) SSE. Retrieved 2020/01/23 06:24 UTC (56 minutes ago):

TAF KBMI 230521Z 2306/2406 18012G20KT P6SM -SN OVC025 FM231000 18012KT 3SM -SN OVC015 FM231400 17011KT 5SM -SN OVC007 FM232000 17010KT 5SM -SNRA OVC004 FM240000 14008KT 2SM -SN OVC004